Time;durP1;ratioP1;P1;durP2;ratioP2;P2;SDS_P1;SDS_P2;PMS_P1;PMS_P2;Temp;Humidity;BMP_temperature;BMP_pressure;BME280_temperature;BME280_humidity;BME280_pressure;Samples;Min_cycle;Max_cycle;Signal;HPM_P1;HPM_P2
2023/06/14 04:58:25;;;;;;;7.23;5.10;;;13.70;99.90;;;;;;5771330;23;20294;-96
2023/06/14 05:00:53;;;;;;;7.40;5.70;;;13.90;99.90;;;;;;4928297;29;20209;-96
2023/06/14 05:03:20;;;;;;;7.63;5.37;;;14.00;99.90;;;;;;4929217;29;20291;-96
2023/06/14 05:05:47;;;;;;;7.67;5.70;;;14.10;99.90;;;;;;4925814;29;20214;-96
2023/06/14 05:08:14;;;;;;;8.87;5.57;;;14.20;99.90;;;;;;4939749;29;20213;-96
2023/06/14 05:10:41;;;;;;;9.73;5.73;;;14.30;99.90;;;;;;4901615;29;20212;-96
2023/06/14 05:13:08;;;;;;;7.50;5.27;;;14.40;99.90;;;;;;4910368;29;20315;-93
2023/06/14 05:15:36;;;;;;;11.53;5.53;;;14.60;90.60;;;;;;4913166;29;20765;-95
2023/06/14 05:18:03;;;;;;;8.67;5.63;;;14.70;26.80;;;;;;4917978;29;20204;-94
2023/06/14 05:20:30;;;;;;;8.43;5.70;;;14.90;1.00;;;;;;4911971;29;20202;-94
2023/06/14 05:22:57;;;;;;;8.13;5.03;;;15.10;1.00;;;;;;4917551;29;20232;-95
2023/06/14 05:25:24;;;;;;;10.40;5.33;;;15.20;1.00;;;;;;4919976;29;20203;-95
2023/06/14 05:27:51;;;;;;;10.30;5.60;;;15.40;1.00;;;;;;4917379;29;20241;-96
2023/06/14 05:30:18;;;;;;;8.20;5.55;;;15.40;1.00;;;;;;4920488;29;20208;-96
2023/06/14 05:32:46;;;;;;;6.45;5.00;;;15.50;1.00;;;;;;4921971;29;20209;-95
2023/06/14 05:35:13;;;;;;;6.90;4.77;;;15.60;99.90;;;;;;4902546;29;20227;-95
2023/06/14 05:37:40;;;;;;;8.83;5.40;;;15.60;99.90;;;;;;4902627;29;20210;-95
2023/06/14 05:40:08;;;;;;;8.25;5.00;;;15.60;99.90;;;;;;4921173;29;20205;-95
2023/06/14 05:42:35;;;;;;;8.82;4.82;;;15.70;99.90;;;;;;4921506;29;20580;-95
2023/06/14 05:45:02;;;;;;;8.30;5.13;;;15.70;99.90;;;;;;4921221;29;20686;-94
2023/06/14 05:47:29;;;;;;;8.60;4.85;;;15.70;84.50;;;;;;4921422;29;20221;-95
2023/06/14 05:49:57;;;;;;;7.75;5.05;;;15.70;1.00;;;;;;4921335;29;20208;-95
2023/06/14 05:52:23;;;;;;;10.68;5.30;;;15.70;1.00;;;;;;4921378;29;20210;-94
2023/06/14 05:54:50;;;;;;;7.07;5.00;;;15.70;1.00;;;;;;4930831;29;20224;-95
2023/06/14 05:57:17;;;;;;;8.37;5.37;;;15.60;68.90;;;;;;4927880;29;20232;-95
2023/06/14 05:59:44;;;;;;;8.20;4.90;;;15.60;99.90;;;;;;4921183;29;20313;-96
2023/06/14 06:02:10;;;;;;;7.60;5.17;;;15.50;99.90;;;;;;4920909;29;20210;-95
2023/06/14 06:04:37;;;;;;;9.43;5.20;;;15.40;99.90;;;;;;4921072;29;20213;-95
2023/06/14 06:07:06;;;;;;;8.63;4.80;;;15.40;99.90;;;;;;4920591;29;20206;-95
2023/06/14 06:09:33;;;;;;;5.53;4.70;;;15.50;99.90;;;;;;4920782;29;20250;-94
2023/06/14 06:12:00;;;;;;;8.93;5.30;;;15.50;99.90;;;;;;4921064;29;20232;-93
2023/06/14 06:14:27;;;;;;;7.00;4.93;;;15.60;99.90;;;;;;4920857;29;20232;-95
2023/06/14 06:16:55;;;;;;;8.60;5.00;;;15.60;99.90;;;;;;4921174;29;20396;-96
2023/06/14 06:19:21;;;;;;;7.60;4.67;;;15.60;99.90;;;;;;4920752;29;20214;-96
2023/06/14 06:21:48;;;;;;;6.03;4.97;;;15.70;99.90;;;;;;4920802;29;20202;-95
2023/06/14 06:24:16;;;;;;;7.33;4.80;;;15.80;95.10;;;;;;4920416;29;20207;-93
2023/06/14 06:26:43;;;;;;;7.10;4.88;;;15.80;78.70;;;;;;4920752;29;20215;-94
2023/06/14 06:29:10;;;;;;;6.57;4.97;;;15.80;97.70;;;;;;4920515;29;20199;-96
2023/06/14 06:31:36;;;;;;;8.80;4.95;;;15.90;55.00;;;;;;4920854;29;20215;-94
2023/06/14 06:34:03;;;;;;;7.30;5.57;;;15.90;1.00;;;;;;4931850;29;20217;-95
2023/06/14 06:36:30;;;;;;;10.80;5.65;;;15.90;1.00;;;;;;4939368;29;20206;-95
2023/06/14 06:38:57;;;;;;;8.75;4.72;;;16.00;1.00;;;;;;4939353;29;20195;-96
2023/06/14 06:41:25;;;;;;;6.53;5.05;;;16.00;1.00;;;;;;4939002;29;20202;-94
2023/06/14 06:43:52;;;;;;;5.60;4.88;;;16.10;1.00;;;;;;4939487;29;20283;-96
2023/06/14 06:46:19;;;;;;;8.68;5.03;;;16.30;1.00;;;;;;4939517;29;20208;-96
2023/06/14 06:48:46;;;;;;;7.75;5.03;;;16.60;1.00;;;;;;4939371;29;20196;-96
2023/06/14 06:51:13;;;;;;;10.68;5.18;;;16.80;1.00;;;;;;4939118;29;20612;-95
2023/06/14 06:53:42;;;;;;;5.88;4.40;;;17.10;99.90;;;;;;4939477;29;20692;-96
2023/06/14 06:56:09;;;;;;;5.10;4.00;;;17.40;81.20;;;;;;4936377;29;20212;-95
2023/06/14 06:58:37;;;;;;;5.70;4.32;;;17.50;1.00;;;;;;4920777;29;20760;-96
2023/06/14 07:01:04;;;;;;;8.23;4.70;;;17.40;1.00;;;;;;4920068;29;20296;-95
2023/06/14 07:03:31;;;;;;;8.25;4.43;;;17.40;1.00;;;;;;4920138;29;20300;-95
2023/06/14 07:05:58;;;;;;;7.07;4.45;;;17.40;1.00;;;;;;4920030;29;20206;-96
2023/06/14 07:08:25;;;;;;;6.00;4.28;;;17.50;1.00;;;;;;4920521;29;20206;-95
2023/06/14 07:10:51;;;;;;;7.15;4.38;;;17.50;1.00;;;;;;4920327;29;20205;-96
2023/06/14 07:13:19;;;;;;;7.07;4.30;;;17.50;1.00;;;;;;4901123;29;20210;-96
2023/06/14 07:15:47;;;;;;;7.40;4.70;;;17.60;1.00;;;;;;4901133;29;20316;-95
2023/06/14 07:18:14;;;;;;;6.18;4.57;;;17.60;1.00;;;;;;4918093;29;20584;-96
2023/06/14 07:20:42;;;;;;;9.45;4.80;;;17.70;99.90;;;;;;4935415;29;20688;-96
2023/06/14 07:23:09;;;;;;;8.95;4.75;;;17.70;99.90;;;;;;4923882;29;20211;-96
2023/06/14 07:25:36;;;;;;;7.15;4.72;;;17.80;99.90;;;;;;4921923;29;20204;-95
2023/06/14 07:28:03;;;;;;;5.35;4.38;;;17.90;99.90;;;;;;4922838;29;20198;-96
2023/06/14 07:30:30;;;;;;;8.35;5.35;;;18.00;99.90;;;;;;4917029;29;20211;-96
2023/06/14 07:32:58;;;;;;;6.95;4.18;;;18.00;99.90;;;;;;4923767;29;20205;-96
2023/06/14 07:35:24;;;;;;;6.63;4.60;;;18.10;99.90;;;;;;4918723;29;20222;-96
2023/06/14 07:37:51;;;;;;;5.72;4.18;;;18.10;99.90;;;;;;4940859;29;20213;-96
2023/06/14 07:40:18;;;;;;;7.43;4.20;;;18.20;99.90;;;;;;4926281;29;20197;-96
2023/06/14 07:42:45;;;;;;;5.30;4.65;;;18.20;99.90;;;;;;4928924;29;20208;-96
2023/06/14 07:45:14;;;;;;;6.88;4.13;;;18.20;99.90;;;;;;4929129;29;20210;-96
2023/06/14 07:47:41;;;;;;;7.78;4.70;;;18.30;99.90;;;;;;4930408;29;20204;-96
2023/06/14 07:50:10;;;;;;;5.72;4.18;;;18.30;54.00;;;;;;4928735;29;20685;-96
2023/06/14 07:52:36;;;;;;;8.18;4.20;;;18.50;31.70;;;;;;4927115;29;20206;-96
2023/06/14 07:55:04;;;;;;;8.13;4.35;;;18.60;16.00;;;;;;4930083;29;20214;-96
2023/06/14 07:57:31;;;;;;;6.38;3.90;;;18.70;1.00;;;;;;4924974;29;20264;-96
2023/06/14 07:59:58;;;;;;;5.28;3.70;;;18.80;1.00;;;;;;4933975;29;20242;-96
2023/06/14 08:02:25;;;;;;;7.97;4.20;;;18.70;1.00;;;;;;4934831;29;20200;-96
2023/06/14 08:04:52;;;;;;;8.15;4.05;;;18.70;1.00;;;;;;4937026;29;20221;-96
2023/06/14 08:07:20;;;;;;;5.25;3.85;;;18.60;1.00;;;;;;4935311;29;20205;-96
2023/06/14 08:09:48;;;;;;;5.28;4.00;;;18.60;1.00;;;;;;4933033;29;20273;-96
2023/06/14 08:12:14;;;;;;;8.73;4.20;;;18.50;1.00;;;;;;4932232;29;20234;-96
2023/06/14 08:14:42;;;;;;;4.80;3.97;;;18.50;1.00;;;;;;4926955;29;20217;-96
2023/06/14 08:17:09;;;;;;;6.95;3.97;;;18.50;1.00;;;;;;4921506;29;20766;-96
2023/06/14 08:19:36;;;;;;;9.90;4.57;;;18.60;1.00;;;;;;4924705;29;20205;-96
2023/06/14 08:22:04;;;;;;;6.40;4.20;;;18.80;1.00;;;;;;4927921;29;20265;-96
2023/06/14 08:24:32;;;;;;;8.57;4.22;;;19.10;1.00;;;;;;4929867;29;20254;-96
2023/06/14 08:27:01;;;;;;;5.90;3.90;;;19.40;1.00;;;;;;4942727;29;20267;-96
2023/06/14 08:29:30;;;;;;;6.80;4.10;;;19.70;1.00;;;;;;4946324;29;20201;-95
2023/06/14 08:31:57;;;;;;;6.43;4.18;;;20.00;1.00;;;;;;4932471;29;20259;-96
2023/06/14 08:34:24;;;;;;;6.32;4.13;;;20.20;1.00;;;;;;4917624;29;20237;-96
2023/06/14 08:36:52;;;;;;;6.72;4.18;;;20.30;1.00;;;;;;4929012;29;20194;-96
2023/06/14 08:39:18;;;;;;;8.00;4.10;;;20.40;1.00;;;;;;4930292;29;20205;-95
2023/06/14 08:41:48;;;;;;;4.97;3.90;;;20.30;1.00;;;;;;4926641;29;20199;-96
2023/06/14 08:44:16;;;;;;;6.50;4.30;;;20.40;1.00;;;;;;4936345;29;20212;-96
2023/06/14 08:46:43;;;;;;;7.18;3.90;;;20.60;1.00;;;;;;4951590;29;20260;-96
2023/06/14 08:49:15;;;;;;;7.95;4.10;;;20.90;1.00;;;;;;4933556;29;20252;-95
2023/06/14 08:51:43;;;;;;;5.75;3.67;;;21.20;1.00;;;;;;4973594;23;20236;-96
2023/06/14 08:54:12;;;;;;;6.55;4.05;;;21.60;1.00;;;;;;4955009;29;20203;-95
2023/06/14 08:56:41;;;;;;;7.40;3.60;;;21.80;99.90;;;;;;4956426;29;20232;-96
2023/06/14 08:59:11;;;;;;;4.55;3.50;;;21.90;99.90;;;;;;4958084;29;20220;-96
2023/06/14 09:01:39;;;;;;;7.50;4.20;;;22.00;99.90;;;;;;4959205;28;20181;-96
2023/06/14 09:06:31;;;;;;;4.22;3.30;;;22.90;99.90;;;;;;4967829;23;20244;-96
2023/06/14 09:08:58;;;;;;;6.25;3.63;;;23.30;99.90;;;;;;5246619;23;20328;-96
2023/06/14 09:11:26;;;;;;;5.55;3.50;;;23.50;99.90;;;;;;5171819;23;20259;-96
2023/06/14 09:13:53;;;;;;;6.90;3.40;;;23.50;99.90;;;;;;4959858;29;20177;-96
2023/06/14 09:24:15;;;;;;;5.60;4.00;;;23.90;99.90;;;;;;5083965;23;20221;-96
2023/06/14 09:26:42;;;;;;;4.90;3.50;;;23.70;99.90;;;;;;5281897;23;20219;-96
2023/06/14 09:47:29;;;;;;;7.03;4.25;;;23.90;99.90;;;;;;6321205;22;1504479;-96
2023/06/14 09:49:57;;;;;;;8.50;3.47;;;24.10;99.90;;;;;;6373397;22;20169;-96
2023/06/14 09:55:00;;;;;;;8.00;3.83;;;24.60;99.90;;;;;;6339260;22;20189;-95
2023/06/14 09:57:33;;;;;;;7.13;3.65;;;25.00;99.90;;;;;;6325931;22;20189;-96
2023/06/14 10:02:50;;;;;;;6.97;3.70;;;25.30;99.90;;;;;;6331215;22;20186;-96
2023/06/14 10:05:20;;;;;;;6.20;3.80;;;25.40;99.90;;;;;;6328525;22;20178;-95
2023/06/14 10:10:23;;;;;;;7.15;3.60;;;25.60;99.90;;;;;;6340281;22;20186;-96
2023/06/14 10:12:50;;;;;;;7.05;3.38;;;25.60;99.90;;;;;;6337649;22;20183;-96
2023/06/14 10:31:04;;;;;;;5.30;3.60;;;26.00;99.90;;;;;;6333351;22;20736;-96
2023/06/14 10:33:31;;;;;;;6.38;3.08;;;26.00;99.90;;;;;;6325547;22;20189;-96
2023/06/14 10:36:09;;;;;;;5.10;3.40;;;26.40;95.60;;;;;;6314488;22;20205;-85
2023/06/14 12:32:36;;;;;;;4.55;3.00;;;28.30;7.50;;;;;;6319784;22;20194;-96
2023/06/14 12:35:03;;;;;;;11.57;3.25;;;28.70;1.00;;;;;;6332469;22;20147;-96
2023/06/14 12:37:30;;;;;;;8.23;3.00;;;28.90;12.00;;;;;;6333566;22;20170;-96
2023/06/14 12:39:57;;;;;;;5.90;3.28;;;29.00;1.00;;;;;;6330873;22;20167;-96
2023/06/14 12:42:24;;;;;;;3.70;2.80;;;29.30;1.00;;;;;;6329853;22;20167;-96
2023/06/14 12:44:51;;;;;;;6.78;2.80;;;29.70;1.00;;;;;;6327592;22;20416;-96
2023/06/14 12:47:18;;;;;;;5.53;2.97;;;30.10;1.00;;;;;;6325109;22;20171;-96
2023/06/14 12:49:46;;;;;;;5.53;2.78;;;30.20;1.00;;;;;;6325747;22;20193;-96
2023/06/14 12:52:13;;;;;;;5.25;3.33;;;30.20;1.00;;;;;;6325439;22;20171;-96
2023/06/14 12:54:40;;;;;;;8.15;3.42;;;30.20;1.00;;;;;;6324151;22;20171;-96
2023/06/14 12:57:08;;;;;;;6.65;3.25;;;30.40;1.00;;;;;;6321689;22;20182;-96
2023/06/14 12:59:35;;;;;;;4.65;3.10;;;30.50;1.00;;;;;;6322275;22;20167;-96
2023/06/14 13:02:13;;;;;;;3.38;2.90;;;30.30;1.00;;;;;;6326416;22;20170;-96
2023/06/14 13:04:40;;;;;;;4.60;2.80;;;29.90;1.00;;;;;;6331261;22;20154;-96
2023/06/14 13:07:11;;;;;;;5.45;3.10;;;29.70;1.00;;;;;;6335292;22;20155;-96
2023/06/14 13:09:38;;;;;;;6.32;2.90;;;29.60;1.00;;;;;;6322152;22;20203;-96
2023/06/14 13:12:06;;;;;;;4.38;3.08;;;29.30;1.00;;;;;;6305825;22;20178;-96
2023/06/14 13:14:36;;;;;;;6.80;2.80;;;29.10;1.00;;;;;;6305463;22;20147;-96
2023/06/14 14:58:43;;;;;;;9.35;3.90;;;23.60;1.00;;;;;;6291011;22;20198;-96
2023/06/14 15:01:11;;;;;;;6.07;3.50;;;23.60;1.00;;;;;;6304677;22;20228;-96
2023/06/14 15:03:38;;;;;;;5.80;3.55;;;23.70;1.00;;;;;;6308829;22;20192;-96
2023/06/14 15:11:16;;;;;;;8.80;4.13;;;23.80;1.00;;;;;;6322257;22;20222;-96
2023/06/14 15:13:44;;;;;;;7.57;3.75;;;23.90;1.00;;;;;;6331675;22;20171;-96
2023/06/14 15:16:11;;;;;;;7.18;3.88;;;23.90;1.00;;;;;;6332694;22;20191;-96
2023/06/14 15:18:38;;;;;;;9.15;3.70;;;24.00;1.00;;;;;;6330943;22;20178;-96
2023/06/14 15:21:05;;;;;;;6.25;4.00;;;24.10;1.00;;;;;;6326803;22;20167;-96
2023/06/14 15:23:32;;;;;;;5.63;3.95;;;24.30;1.00;;;;;;6322805;22;20178;-96
2023/06/14 15:25:59;;;;;;;9.25;3.72;;;24.40;1.00;;;;;;6320559;22;20171;-96
2023/06/14 15:28:28;;;;;;;5.05;3.75;;;24.50;1.00;;;;;;6312365;22;20159;-95
2023/06/14 15:30:56;;;;;;;10.93;3.92;;;24.60;1.00;;;;;;6310779;22;20170;-94
2023/06/14 15:33:23;;;;;;;4.53;3.47;;;24.80;1.00;;;;;;6323293;22;20178;-96
2023/06/14 15:35:50;;;;;;;6.38;3.42;;;24.90;1.00;;;;;;6332606;22;20203;-96
2023/06/14 15:38:17;;;;;;;5.57;3.50;;;25.00;1.00;;;;;;6331043;22;20175;-96
2023/06/14 15:40:44;;;;;;;5.97;3.35;;;25.20;1.00;;;;;;6334890;22;20146;-96
2023/06/14 15:45:45;;;;;;;5.38;3.53;;;25.40;1.00;;;;;;6356143;22;20173;-96
2023/06/14 15:48:13;;;;;;;6.57;3.72;;;25.50;1.00;;;;;;6352309;22;20155;-96
2023/06/14 15:50:40;;;;;;;4.35;3.30;;;25.60;1.00;;;;;;6359414;22;20189;-96
2023/06/14 15:53:07;;;;;;;5.72;3.45;;;25.70;1.00;;;;;;6357447;22;20163;-96
2023/06/14 15:55:34;;;;;;;5.63;3.60;;;25.80;1.00;;;;;;6347391;22;20194;-95
2023/06/14 15:58:01;;;;;;;7.82;4.20;;;25.90;1.00;;;;;;6344248;22;20166;-96
2023/06/14 16:00:28;;;;;;;6.25;3.60;;;26.00;1.00;;;;;;6348799;22;20202;-96
2023/06/14 16:02:55;;;;;;;7.40;3.78;;;26.20;1.00;;;;;;6344950;22;20886;-96
2023/06/14 16:05:23;;;;;;;6.68;3.47;;;26.20;1.00;;;;;;6345586;22;20171;-96
2023/06/14 16:07:50;;;;;;;9.88;3.88;;;26.10;1.00;;;;;;6349767;22;20177;-96
2023/06/14 16:10:16;;;;;;;6.50;3.25;;;25.90;1.00;;;;;;6345337;22;20249;-93
2023/06/14 16:12:43;;;;;;;8.77;3.70;;;25.70;1.00;;;;;;6341433;22;20174;-96
2023/06/14 16:15:11;;;;;;;9.32;3.72;;;25.50;1.00;;;;;;6342157;22;20570;-95
2023/06/14 16:17:38;;;;;;;5.20;3.38;;;25.40;1.00;;;;;;6344524;22;20186;-95
2023/06/14 16:20:05;;;;;;;5.30;3.40;;;25.20;1.00;;;;;;6352689;22;20229;-96
2023/06/14 16:22:34;;;;;;;19.38;9.00;;;25.00;1.00;;;;;;6350786;22;20177;-96
2023/06/14 16:25:00;;;;;;;6.10;4.40;;;24.90;1.00;;;;;;6356641;22;20236;-96
2023/06/14 16:27:27;;;;;;;6.68;3.90;;;24.80;1.00;;;;;;6349721;22;20173;-96
2023/06/14 16:29:54;;;;;;;11.18;3.88;;;24.70;1.00;;;;;;6346798;22;20197;-95
2023/06/14 16:32:21;;;;;;;7.35;3.80;;;24.60;1.00;;;;;;6335518;22;20182;-96
2023/06/14 16:34:48;;;;;;;8.27;3.58;;;24.60;1.00;;;;;;6332756;22;20170;-95
2023/06/14 16:37:15;;;;;;;4.47;3.42;;;24.50;1.00;;;;;;6325180;22;20209;-96
2023/06/14 16:39:43;;;;;;;6.35;3.60;;;24.40;1.00;;;;;;6324353;22;21085;-86
2023/06/14 16:42:11;;;;;;;7.22;3.65;;;24.40;1.00;;;;;;6332409;22;20639;-96
2023/06/14 16:44:38;;;;;;;5.53;3.58;;;24.30;1.00;;;;;;6335524;22;20167;-96
2023/06/14 16:47:06;;;;;;;5.25;3.70;;;24.10;1.00;;;;;;6326269;22;20174;-96
2023/06/14 16:49:33;;;;;;;7.75;3.58;;;23.90;1.00;;;;;;6330201;22;20224;-94
2023/06/14 16:52:00;;;;;;;10.35;3.90;;;23.80;1.00;;;;;;6327923;22;20235;-95
2023/06/14 16:54:29;;;;;;;6.82;3.50;;;23.60;1.00;;;;;;6334773;22;20167;-96
2023/06/14 16:56:57;;;;;;;5.85;3.20;;;23.50;1.00;;;;;;6329724;22;20187;-95
2023/06/14 16:59:30;;;;;;;5.82;3.40;;;23.30;1.00;;;;;;6330827;22;20199;-96
2023/06/14 17:02:02;;;;;;;7.00;3.08;;;23.20;1.00;;;;;;6332704;22;20155;-96
2023/06/14 17:06:55;;;;;;;5.65;3.58;;;22.90;1.00;;;;;;6329911;22;20191;-96
2023/06/14 17:11:48;;;;;;;5.47;3.03;;;22.50;2.80;;;;;;6327861;22;20629;-96
2023/06/14 17:16:44;;;;;;;5.93;3.10;;;22.20;4.10;;;;;;6364623;22;20167;-96
2023/06/14 17:19:12;;;;;;;4.50;3.15;;;22.10;1.00;;;;;;6358972;22;20193;-96
2023/06/14 17:21:40;;;;;;;6.68;3.33;;;21.90;1.00;;;;;;6359126;22;20170;-96
2023/06/14 17:24:07;;;;;;;4.55;3.00;;;21.70;1.00;;;;;;6356765;22;20561;-96
2023/06/14 17:26:34;;;;;;;7.53;3.47;;;21.40;3.30;;;;;;6354420;22;20536;-96
2023/06/14 17:29:01;;;;;;;9.18;2.85;;;21.10;1.00;;;;;;6355535;22;20166;-96
2023/06/14 17:31:28;;;;;;;7.55;3.10;;;20.50;16.40;;;;;;6344016;22;20174;-96
2023/06/14 17:33:56;;;;;;;5.18;3.42;;;19.70;84.20;;;;;;6349206;22;20620;-96
2023/06/14 17:36:23;;;;;;;5.38;3.50;;;18.90;99.90;;;;;;6342062;22;20189;-96
2023/06/14 17:38:50;;;;;;;8.35;3.95;;;18.30;1.00;;;;;;6355372;22;20170;-96
2023/06/14 17:49:04;;;;;;;9.40;4.47;;;16.90;1.00;;;;;;6330245;22;20205;-96
2023/06/14 17:51:31;;;;;;;7.53;4.15;;;16.80;99.90;;;;;;6323587;22;20170;-96
2023/06/14 17:53:58;;;;;;;6.25;4.53;;;16.70;1.00;;;;;;6326349;22;20174;-96
2023/06/14 17:56:25;;;;;;;7.95;4.38;;;16.70;1.00;;;;;;6328255;22;20197;-96
2023/06/14 17:58:53;;;;;;;5.70;4.82;;;16.70;99.90;;;;;;6335231;22;20174;-96
2023/06/14 18:01:20;;;;;;;6.68;4.30;;;16.70;99.90;;;;;;6335143;22;20158;-96
2023/06/14 18:03:47;;;;;;;5.95;4.45;;;16.70;1.00;;;;;;6320276;22;20165;-96
2023/06/14 18:06:16;;;;;;;6.68;4.45;;;16.70;1.00;;;;;;6314368;22;20211;-95
2023/06/14 18:08:43;;;;;;;8.57;4.47;;;16.70;1.00;;;;;;6315468;22;20253;-94
2023/06/14 18:11:10;;;;;;;7.18;4.65;;;16.70;1.00;;;;;;6320414;22;20170;-95
2023/06/14 18:13:37;;;;;;;6.97;4.68;;;16.70;1.60;;;;;;6317860;22;20176;-95
2023/06/14 18:16:04;;;;;;;5.65;4.20;;;16.70;22.30;;;;;;6325493;22;20209;-95
2023/06/14 18:18:31;;;;;;;5.10;4.20;;;16.70;97.60;;;;;;6327019;22;20203;-96
2023/06/14 18:20:59;;;;;;;7.25;4.70;;;16.70;99.90;;;;;;6316263;22;20167;-95
2023/06/14 18:23:27;;;;;;;7.82;4.90;;;16.60;99.90;;;;;;6324902;22;20171;-96
2023/06/14 18:25:54;;;;;;;6.25;5.00;;;16.70;1.00;;;;;;6323618;22;20253;-96
2023/06/14 18:28:21;;;;;;;7.63;5.18;;;16.70;1.00;;;;;;6320362;22;20190;-95
2023/06/14 18:30:48;;;;;;;8.13;5.57;;;16.80;1.00;;;;;;6321275;22;20174;-96
2023/06/14 18:33:15;;;;;;;7.63;5.70;;;16.80;1.00;;;;;;6312940;22;20503;-94
2023/06/14 18:35:42;;;;;;;12.18;7.43;;;16.90;1.00;;;;;;6312312;22;20172;-95
2023/06/14 18:38:08;;;;;;;13.90;7.22;;;17.00;1.00;;;;;;6311887;22;20197;-95
2023/06/14 18:40:36;;;;;;;15.18;6.97;;;17.00;1.00;;;;;;6311165;22;20167;-94
2023/06/14 18:43:03;;;;;;;15.15;7.50;;;17.10;1.00;;;;;;6311913;22;20177;-95
2023/06/14 18:45:31;;;;;;;8.57;6.53;;;17.20;1.00;;;;;;6311102;22;20702;-92
2023/06/14 18:47:58;;;;;;;10.85;6.85;;;17.20;1.00;;;;;;6310853;22;20667;-92
2023/06/14 18:50:25;;;;;;;9.02;5.63;;;17.20;1.00;;;;;;6310982;22;20165;-93
2023/06/14 18:52:52;;;;;;;8.05;5.20;;;17.30;1.00;;;;;;6311455;22;20170;-94
2023/06/14 18:55:20;;;;;;;8.15;4.90;;;17.30;1.00;;;;;;6311455;22;20167;-93
2023/06/14 18:57:49;;;;;;;7.60;4.97;;;17.30;1.00;;;;;;6311272;22;20541;-95
2023/06/14 19:00:16;;;;;;;8.77;5.50;;;17.30;1.00;;;;;;6311734;22;20199;-95
2023/06/14 19:02:43;;;;;;;7.82;4.50;;;17.30;1.00;;;;;;6308878;22;20171;-95
2023/06/14 19:05:10;;;;;;;9.20;5.60;;;17.40;1.00;;;;;;6311576;22;20174;-94
2023/06/14 19:07:37;;;;;;;10.07;5.88;;;17.40;1.00;;;;;;6311258;22;20173;-94
2023/06/14 19:10:04;;;;;;;11.13;5.82;;;17.30;1.00;;;;;;6311071;22;20195;-95
2023/06/14 19:12:31;;;;;;;7.88;5.30;;;17.30;1.00;;;;;;6311516;22;20253;-95
2023/06/14 19:14:59;;;;;;;8.43;5.50;;;17.30;94.50;;;;;;6311477;22;20632;-96
2023/06/14 19:17:27;;;;;;;8.10;4.80;;;17.30;59.40;;;;;;6311144;22;20653;-95
2023/06/14 19:19:53;;;;;;;5.38;4.75;;;17.30;1.00;;;;;;6311272;22;20203;-94
2023/06/14 19:22:20;;;;;;;5.93;4.82;;;17.30;1.00;;;;;;6311911;22;20183;-96
2023/06/14 19:24:47;;;;;;;7.32;4.53;;;17.30;1.00;;;;;;6311450;22;20246;-95
2023/06/14 19:27:14;;;;;;;6.88;4.97;;;17.20;1.00;;;;;;6311408;22;20297;-94
2023/06/14 19:29:41;;;;;;;8.60;4.70;;;17.20;1.00;;;;;;6312077;22;20177;-95
2023/06/14 19:32:09;;;;;;;7.28;5.18;;;17.10;66.30;;;;;;6311491;22;20269;-95
2023/06/14 19:34:42;;;;;;;7.38;4.50;;;17.00;99.90;;;;;;6311897;22;20510;-95
2023/06/14 19:37:09;;;;;;;7.35;5.05;;;16.90;99.90;;;;;;6311639;22;20176;-95
2023/06/14 19:39:36;;;;;;;6.80;4.97;;;16.80;1.00;;;;;;6310621;22;20166;-95
2023/06/14 19:42:02;;;;;;;7.28;5.32;;;16.80;1.00;;;;;;6311179;22;20202;-95
2023/06/14 19:44:29;;;;;;;6.07;5.20;;;16.70;1.00;;;;;;6312455;22;20170;-94
2023/06/14 19:46:56;;;;;;;7.45;5.22;;;16.60;85.60;;;;;;6311208;22;20167;-95
2023/06/14 19:49:24;;;;;;;7.57;4.93;;;16.60;99.90;;;;;;6310790;22;20223;-95
2023/06/14 19:51:51;;;;;;;6.43;4.90;;;16.60;99.90;;;;;;6310953;22;20174;-94
2023/06/14 19:54:18;;;;;;;8.90;5.15;;;16.50;99.90;;;;;;6310813;22;20711;-95
2023/06/14 19:56:45;;;;;;;7.55;5.40;;;16.50;99.90;;;;;;6313622;22;20193;-94
2023/06/14 19:59:12;;;;;;;7.30;5.38;;;16.40;99.90;;;;;;6312856;22;20171;-94
2023/06/14 20:01:39;;;;;;;6.80;5.50;;;16.30;99.90;;;;;;6312494;22;20198;-93
2023/06/14 20:04:06;;;;;;;8.35;6.72;;;16.30;99.90;;;;;;6313724;22;20617;-95
2023/06/14 20:06:34;;;;;;;7.80;6.13;;;16.10;99.90;;;;;;6313933;22;20245;-94
2023/06/14 20:09:05;;;;;;;11.23;6.47;;;16.00;99.90;;;;;;6313581;22;20207;-93
2023/06/14 20:11:32;;;;;;;7.53;6.47;;;15.90;1.00;;;;;;6313566;22;20165;-94
2023/06/14 20:13:59;;;;;;;8.65;6.28;;;15.80;1.00;;;;;;6313705;22;20236;-95
2023/06/14 20:16:26;;;;;;;8.55;6.85;;;15.70;1.00;;;;;;6313220;22;20173;-93
2023/06/14 20:18:56;;;;;;;8.00;6.82;;;15.60;1.00;;;;;;6312365;22;20188;-93
2023/06/14 20:21:23;;;;;;;10.98;7.53;;;15.60;1.00;;;;;;6311461;22;20170;-93
2023/06/14 20:23:52;;;;;;;11.00;7.20;;;15.50;1.00;;;;;;6310733;22;20508;-95
2023/06/14 20:26:19;;;;;;;8.35;7.35;;;15.50;1.00;;;;;;6310619;22;20178;-96
2023/06/14 20:28:45;;;;;;;9.80;6.97;;;15.50;1.00;;;;;;6312136;22;20204;-93
2023/06/14 20:31:18;;;;;;;11.68;7.85;;;15.40;1.00;;;;;;6311703;22;20176;-94
2023/06/14 20:33:45;;;;;;;8.40;7.22;;;15.40;2.50;;;;;;6311050;22;20211;-94
2023/06/14 20:36:12;;;;;;;11.57;7.22;;;15.40;19.90;;;;;;6311280;22;20175;-93
2023/06/14 20:38:39;;;;;;;8.13;6.88;;;15.40;95.90;;;;;;6311414;22;20196;-95
2023/06/14 20:41:07;;;;;;;7.63;6.72;;;15.40;53.60;;;;;;6310553;22;20169;-93
2023/06/14 20:43:35;;;;;;;8.83;7.23;;;15.30;12.10;;;;;;6311003;22;20166;-93
2023/06/14 20:46:02;;;;;;;9.85;7.05;;;15.30;99.90;;;;;;6310924;22;20168;-93
2023/06/14 20:48:29;;;;;;;10.18;7.10;;;15.30;99.90;;;;;;6310828;22;20199;-93
2023/06/14 20:50:56;;;;;;;8.65;7.00;;;15.30;99.90;;;;;;6311108;22;20176;-95
2023/06/14 20:53:23;;;;;;;9.07;6.90;;;15.30;99.90;;;;;;6311952;22;20169;-95
2023/06/14 20:55:50;;;;;;;9.27;6.93;;;15.20;99.90;;;;;;6310925;22;20651;-95
2023/06/14 20:58:19;;;;;;;7.80;7.00;;;15.20;99.90;;;;;;6310590;22;20186;-95
2023/06/14 21:00:46;;;;;;;8.50;6.47;;;15.20;99.90;;;;;;6311212;22;20173;-95
2023/06/14 21:03:13;;;;;;;7.63;6.23;;;15.20;1.00;;;;;;6310921;22;20173;-95
2023/06/14 21:05:40;;;;;;;7.90;6.10;;;15.20;1.00;;;;;;6311019;22;20187;-95
2023/06/14 21:08:06;;;;;;;6.68;6.03;;;15.20;1.00;;;;;;6310548;22;20547;-95
2023/06/14 21:10:33;;;;;;;7.40;5.53;;;15.20;1.00;;;;;;6310895;22;20230;-95
2023/06/14 21:13:00;;;;;;;5.85;5.25;;;15.20;1.00;;;;;;6310512;22;20500;-95
2023/06/14 21:15:28;;;;;;;7.95;5.70;;;15.30;1.00;;;;;;6310445;22;20171;-95
2023/06/14 21:17:56;;;;;;;7.10;5.63;;;15.30;1.00;;;;;;6310616;22;20192;-95
2023/06/14 21:20:23;;;;;;;7.18;5.65;;;15.30;1.00;;;;;;6310581;22;20215;-93
2023/06/14 21:22:50;;;;;;;9.77;5.60;;;15.30;1.00;;;;;;6310880;22;20251;-95
2023/06/14 21:25:17;;;;;;;6.47;5.60;;;15.30;1.00;;;;;;6310768;22;20178;-93
2023/06/14 21:27:44;;;;;;;6.40;5.55;;;15.30;1.00;;;;;;6311088;22;20251;-94
2023/06/14 21:30:15;;;;;;;8.57;6.05;;;15.30;1.00;;;;;;6310630;22;20170;-94
2023/06/14 21:32:46;;;;;;;7.13;5.60;;;15.30;1.00;;;;;;6310336;22;20228;-94
2023/06/14 21:35:16;;;;;;;6.55;5.78;;;15.40;1.00;;;;;;6310211;22;20166;-92
2023/06/14 21:37:43;;;;;;;10.73;6.38;;;15.40;99.90;;;;;;6310358;22;20585;-93
2023/06/14 21:40:11;;;;;;;7.13;6.13;;;15.50;99.90;;;;;;6310590;22;20169;-93
2023/06/14 21:42:38;;;;;;;7.20;6.45;;;15.50;99.90;;;;;;6311116;22;20196;-94
2023/06/14 21:45:09;;;;;;;9.25;6.50;;;15.60;99.90;;;;;;6310564;22;20254;-93
2023/06/14 21:47:36;;;;;;;10.50;6.55;;;15.60;99.90;;;;;;6310361;22;20276;-93
2023/06/14 21:50:05;;;;;;;10.38;7.00;;;15.70;99.90;;;;;;6310414;22;20515;-92
2023/06/14 21:52:31;;;;;;;9.32;7.10;;;15.70;99.90;;;;;;6310397;22;20251;-93
